Time,TemperatureF,DewpointF,PressureIn,WindDirection,WindDirectionDegrees,WindSpeedMPH,WindSpeedGustMPH,Humidity,HourlyPrecipIn,Conditions,Clouds,dailyrainin,SoftwareType,DateUTC
2013-10-20 00:13:00,49.0,45.0,30.07,NNE,33,1.0,2.0,87,0.00,,,0.00,,2013-10-20 05:13:00,
2013-10-20 00:23:00,49.0,46.0,30.06,NNE,33,0.0,2.0,88,0.00,,,0.00,,2013-10-20 05:23:00,
2013-10-20 00:43:00,49.0,46.0,30.06,NNE,33,0.0,0.0,88,0.00,,,0.00,,2013-10-20 05:43:00,
2013-10-20 00:52:00,48.0,44.0,30.06,NNE,33,0.0,0.0,87,0.00,,,0.00,,2013-10-20 05:52:00,
2013-10-20 01:12:00,48.0,45.0,30.06,NNE,33,0.0,0.0,88,0.00,,,0.00,,2013-10-20 06:12:00,
2013-10-20 01:22:00,47.0,44.0,30.06,NNE,33,0.0,1.0,90,0.00,,,0.00,,2013-10-20 06:22:00,
2013-10-20 01:52:00,47.0,45.0,30.05,NNE,33,0.0,1.0,91,0.00,,,0.00,,2013-10-20 06:52:00,
2013-10-20 02:12:00,47.0,45.0,30.05,NNE,33,0.0,0.0,92,0.00,,,0.00,,2013-10-20 07:12:00,
2013-10-20 02:22:00,47.0,45.0,30.05,NNE,33,0.0,0.0,92,0.00,,,0.00,,2013-10-20 07:22:00,
2013-10-20 02:42:00,46.0,44.0,30.05,NNE,33,0.0,1.0,92,0.00,,,0.00,,2013-10-20 07:42:00,
2013-10-20 02:52:00,46.0,44.0,30.05,NNE,33,0.0,0.0,91,0.00,,,0.00,,2013-10-20 07:52:00,
2013-10-20 03:11:00,46.0,44.0,30.05,NNE,33,0.0,2.0,93,0.00,,,0.00,,2013-10-20 08:11:00,
2013-10-20 03:22:00,46.0,44.0,30.05,NNE,33,0.0,1.0,93,0.00,,,0.00,,2013-10-20 08:22:00,
2013-10-20 03:42:00,45.0,43.0,30.05,NNE,33,0.0,1.0,93,0.00,,,0.00,,2013-10-20 08:42:00,
2013-10-20 03:52:00,46.0,44.0,30.04,NNE,33,0.0,2.0,94,0.00,,,0.00,,2013-10-20 08:52:00,
2013-10-20 04:11:00,46.0,44.0,30.05,NNE,33,0.0,0.0,94,0.00,,,0.00,,2013-10-20 09:11:00,
2013-10-20 04:21:00,46.0,44.0,30.05,NNE,33,0.0,0.0,94,0.00,,,0.00,,2013-10-20 09:21:00,
2013-10-20 04:43:00,45.0,43.0,30.05,NNE,33,0.0,1.0,94,0.00,,,0.00,,2013-10-20 09:43:00,
2013-10-20 04:53:00,45.0,43.0,30.05,NNE,33,0.0,0.0,94,0.00,,,0.00,,2013-10-20 09:53:00,
2013-10-20 05:12:00,44.0,42.0,30.05,NNE,33,0.0,0.0,94,0.00,,,0.00,,2013-10-20 10:12:00,
2013-10-20 05:23:00,44.0,42.0,30.05,NNE,33,0.0,0.0,94,0.00,,,0.00,,2013-10-20 10:23:00,
2013-10-20 05:53:00,44.0,42.0,30.06,NNE,33,0.0,0.0,94,0.00,,,0.00,,2013-10-20 10:53:00,
2013-10-20 06:12:00,43.0,41.0,30.06,NNE,33,0.0,0.0,94,0.00,,,0.00,,2013-10-20 11:12:00,
2013-10-20 06:22:00,43.0,41.0,30.06,NNE,33,0.0,0.0,94,0.00,,,0.00,,2013-10-20 11:22:00,
2013-10-20 06:42:00,43.0,42.0,30.06,NNE,33,0.0,0.0,95,0.00,,,0.00,,2013-10-20 11:42:00,
2013-10-20 06:52:00,43.0,42.0,30.07,NNE,33,0.0,0.0,95,0.00,,,0.00,,2013-10-20 11:52:00,
2013-10-20 07:11:00,43.0,42.0,30.07,NNE,33,0.0,0.0,95,0.00,,,0.00,,2013-10-20 12:11:00,
2013-10-20 07:21:00,43.0,42.0,30.07,NNE,33,0.0,0.0,95,0.00,,,0.00,,2013-10-20 12:21:00,
2013-10-20 07:42:00,43.0,42.0,30.08,NNE,33,0.0,0.0,95,0.00,,,0.00,,2013-10-20 12:42:00,
2013-10-20 07:52:00,43.0,42.0,30.08,NNE,33,0.0,0.0,95,0.00,,,0.00,,2013-10-20 12:52:00,
2013-10-20 08:11:00,44.0,43.0,30.09,NNE,33,0.0,0.0,96,0.00,,,0.00,,2013-10-20 13:11:00,
2013-10-20 08:21:00,44.0,43.0,30.09,NNE,33,0.0,0.0,96,0.00,,,0.00,,2013-10-20 13:21:00,
2013-10-20 08:42:00,45.0,44.0,30.09,NNE,33,0.0,1.0,95,0.00,,,0.00,,2013-10-20 13:42:00,
2013-10-20 08:52:00,46.0,45.0,30.10,East,90,0.0,5.0,95,0.00,,,0.00,,2013-10-20 13:52:00,
2013-10-20 09:12:00,48.0,46.0,30.10,East,90,1.0,3.0,93,0.00,,,0.00,,2013-10-20 14:12:00,
2013-10-20 09:22:00,50.0,47.0,30.11,SE,133,2.0,5.0,88,0.00,,,0.00,,2013-10-20 14:22:00,
2013-10-20 09:42:00,52.0,48.0,30.11,ESE,102,1.0,3.0,86,0.00,,,0.00,,2013-10-20 14:42:00,
2013-10-20 09:52:00,53.0,48.0,30.11,ESE,121,3.0,7.0,83,0.00,,,0.00,,2013-10-20 14:52:00,
2013-10-20 10:11:00,53.0,48.0,30.11,East,90,2.0,8.0,82,0.00,,,0.00,,2013-10-20 15:11:00,
2013-10-20 10:22:00,55.0,49.0,30.11,East,91,2.0,5.0,80,0.00,,,0.00,,2013-10-20 15:22:00,
2013-10-20 10:44:00,56.0,49.0,30.10,SE,138,2.0,5.0,77,0.00,,,0.00,,2013-10-20 15:44:00,
2013-10-20 10:54:00,57.0,50.0,30.10,East,100,0.0,4.0,77,0.00,,,0.00,,2013-10-20 15:54:00,
2013-10-20 11:14:00,58.0,50.0,30.10,SE,146,0.0,4.0,74,0.00,,,0.00,,2013-10-20 16:14:00,
2013-10-20 11:24:00,59.0,48.0,30.11,SE,139,0.0,4.0,68,0.00,,,0.00,,2013-10-20 16:24:00,
2013-10-20 11:43:00,60.0,47.0,30.10,SE,132,0.0,6.0,61,0.00,,,0.00,,2013-10-20 16:43:00,
2013-10-20 11:54:00,61.0,47.0,30.10,East,98,3.0,7.0,59,0.00,,,0.00,,2013-10-20 16:54:00,
2013-10-20 12:12:00,62.0,46.0,30.09,ENE,61,2.0,5.0,56,0.00,,,0.00,,2013-10-20 17:12:00,
2013-10-20 12:23:00,62.0,42.0,30.09,NE,51,4.0,7.0,48,0.00,,,0.00,,2013-10-20 17:23:00,
2013-10-20 12:42:00,63.0,45.0,30.09,SE,130,2.0,9.0,52,0.00,,,0.00,,2013-10-20 17:42:00,
2013-10-20 12:52:00,63.0,43.0,30.08,North,5,3.0,7.0,48,0.00,,,0.00,,2013-10-20 17:52:00,
2013-10-20 13:12:00,64.0,43.0,30.07,SE,142,2.0,8.0,46,0.00,,,0.00,,2013-10-20 18:12:00,
2013-10-20 13:22:00,65.0,39.0,30.06,SE,131,3.0,8.0,39,0.00,,,0.00,,2013-10-20 18:22:00,
2013-10-20 13:42:00,66.0,43.0,30.06,NNE,30,2.0,6.0,43,0.00,,,0.00,,2013-10-20 18:42:00,
2013-10-20 13:52:00,65.0,41.0,30.04,SE,134,2.0,6.0,41,0.00,,,0.00,,2013-10-20 18:52:00,
2013-10-20 14:12:00,66.0,41.0,30.03,NNW,340,2.0,6.0,40,0.00,,,0.00,,2013-10-20 19:12:00,
2013-10-20 14:22:00,67.0,38.0,30.02,ESE,118,0.0,4.0,35,0.00,,,0.00,,2013-10-20 19:22:00,
2013-10-20 14:42:00,67.0,41.0,30.02,SE,133,2.0,6.0,38,0.00,,,0.00,,2013-10-20 19:42:00,
2013-10-20 14:52:00,68.0,41.0,30.01,SE,135,2.0,7.0,37,0.00,,,0.00,,2013-10-20 19:52:00,
2013-10-20 15:11:00,68.0,43.0,30.01,SE,137,0.0,5.0,41,0.00,,,0.00,,2013-10-20 20:11:00,
2013-10-20 15:22:00,69.0,42.0,30.00,SW,223,1.0,5.0,37,0.00,,,0.00,,2013-10-20 20:22:00,
2013-10-20 15:43:00,69.0,42.0,29.99,ESE,112,1.0,6.0,38,0.00,,,0.00,,2013-10-20 20:43:00,
2013-10-20 15:52:00,68.0,42.0,29.99,NNE,23,1.0,5.0,39,0.00,,,0.00,,2013-10-20 20:52:00,
2013-10-20 16:11:00,69.0,43.0,29.99,ENE,71,1.0,6.0,39,0.00,,,0.00,,2013-10-20 21:11:00,
2013-10-20 16:21:00,69.0,42.0,29.98,NNE,12,2.0,5.0,38,0.00,,,0.00,,2013-10-20 21:21:00,
2013-10-20 16:44:00,69.0,43.0,29.98,ENE,74,1.0,5.0,39,0.00,,,0.00,,2013-10-20 21:44:00,
2013-10-20 16:54:00,70.0,43.0,29.98,ESE,119,0.0,3.0,38,0.00,,,0.00,,2013-10-20 21:54:00,
2013-10-20 17:13:00,70.0,43.0,29.98,SE,129,0.0,4.0,37,0.00,,,0.00,,2013-10-20 22:13:00,
2013-10-20 17:23:00,70.0,43.0,29.98,NE,42,1.0,4.0,38,0.00,,,0.00,,2013-10-20 22:23:00,
2013-10-20 17:43:00,69.0,43.0,29.98,East,88,1.0,5.0,39,0.00,,,0.00,,2013-10-20 22:43:00,
2013-10-20 17:53:00,69.0,44.0,29.98,ESE,115,0.0,5.0,41,0.00,,,0.00,,2013-10-20 22:53:00,
2013-10-20 18:13:00,68.0,45.0,29.98,ESE,115,0.0,5.0,43,0.00,,,0.00,,2013-10-20 23:13:00,
2013-10-20 18:22:00,68.0,45.0,29.98,ESE,120,0.0,3.0,44,0.00,,,0.00,,2013-10-20 23:22:00,
2013-10-20 18:42:00,67.0,45.0,29.98,ESE,120,0.0,2.0,45,0.00,,,0.00,,2013-10-20 23:42:00,
2013-10-20 18:52:00,66.0,46.0,29.98,ESE,120,0.0,2.0,48,0.00,,,0.00,,2013-10-20 23:52:00,
2013-10-20 19:11:00,65.0,46.0,29.98,ESE,120,0.0,2.0,50,0.00,,,0.00,,2013-10-21 00:11:00,
2013-10-20 19:21:00,64.0,46.0,29.98,ESE,120,1.0,2.0,52,0.00,,,0.00,,2013-10-21 00:21:00,
2013-10-20 19:43:00,63.0,46.0,29.99,ESE,120,1.0,3.0,53,0.00,,,0.00,,2013-10-21 00:43:00,
2013-10-20 19:52:00,62.0,46.0,29.99,ESE,120,2.0,4.0,55,0.00,,,0.00,,2013-10-21 00:52:00,
2013-10-20 20:12:00,61.0,46.0,29.99,SE,124,0.0,2.0,57,0.00,,,0.00,,2013-10-21 01:12:00,
2013-10-20 20:21:00,60.0,46.0,29.99,SE,124,1.0,3.0,59,0.00,,,0.00,,2013-10-21 01:21:00,
2013-10-20 20:42:00,59.0,45.0,29.99,SE,124,0.0,2.0,59,0.00,,,0.00,,2013-10-21 01:42:00,
2013-10-20 20:52:00,59.0,46.0,29.99,SE,124,0.0,1.0,61,0.00,,,0.00,,2013-10-21 01:52:00,
2013-10-20 21:12:00,58.0,47.0,29.99,SE,124,0.0,1.0,66,0.00,,,0.00,,2013-10-21 02:12:00,
2013-10-20 21:22:00,57.0,47.0,29.99,SE,124,0.0,0.0,68,0.00,,,0.00,,2013-10-21 02:22:00,
2013-10-20 21:42:00,56.0,46.0,29.99,SE,124,0.0,0.0,69,0.00,,,0.00,,2013-10-21 02:42:00,
2013-10-20 21:52:00,55.0,46.0,30.00,SE,124,0.0,0.0,71,0.00,,,0.00,,2013-10-21 02:52:00,
2013-10-20 22:12:00,54.0,46.0,30.00,SE,124,0.0,0.0,75,0.00,,,0.00,,2013-10-21 03:12:00,
2013-10-20 22:22:00,54.0,46.0,30.00,SE,124,0.0,1.0,73,0.00,,,0.00,,2013-10-21 03:22:00,
2013-10-20 22:45:00,53.0,46.0,30.00,SE,124,0.0,0.0,76,0.00,,,0.00,,2013-10-21 03:45:00,
2013-10-20 22:55:00,53.0,46.0,30.00,SE,124,0.0,0.0,77,0.00,,,0.00,,2013-10-21 03:55:00,
2013-10-20 23:13:00,52.0,46.0,30.00,SE,124,0.0,1.0,79,0.00,,,0.00,,2013-10-21 04:13:00,
2013-10-20 23:24:00,52.0,46.0,30.00,SE,124,0.0,0.0,79,0.00,,,0.00,,2013-10-21 04:24:00,
2013-10-20 23:44:00,51.0,45.0,29.99,SE,124,0.0,0.0,80,0.00,,,0.00,,2013-10-21 04:44:00,
2013-10-20 23:53:00,51.0,46.0,30.00,SE,124,0.0,1.0,83,0.00,,,0.00,,2013-10-21 04:53:00,